sensor_id;sensor_type;location;lat;lon;timestamp;temperature;humidity
12315;DHT22;23886;46.614;14.276;2022-10-16T00:00:57;8.30;99.90
12315;DHT22;23886;46.614;14.276;2022-10-16T00:03:24;8.30;99.90
12315;DHT22;23886;46.614;14.276;2022-10-16T00:05:53;8.40;99.90
12315;DHT22;23886;46.614;14.276;2022-10-16T00:08:20;8.40;99.90
12315;DHT22;23886;46.614;14.276;2022-10-16T00:10:47;8.40;99.90
12315;DHT22;23886;46.614;14.276;2022-10-16T00:13:14;8.40;99.90
12315;DHT22;23886;46.614;14.276;2022-10-16T00:15:42;8.50;99.90
12315;DHT22;23886;46.614;14.276;2022-10-16T00:18:10;8.60;99.90
12315;DHT22;23886;46.614;14.276;2022-10-16T00:20:37;8.60;99.90
12315;DHT22;23886;46.614;14.276;2022-10-16T00:23:05;8.60;99.90
12315;DHT22;23886;46.614;14.276;2022-10-16T00:25:32;8.60;99.90
12315;DHT22;23886;46.614;14.276;2022-10-16T00:27:59;8.60;99.90
12315;DHT22;23886;46.614;14.276;2022-10-16T00:30:26;8.70;99.90
12315;DHT22;23886;46.614;14.276;2022-10-16T00:32:54;8.70;99.90
12315;DHT22;23886;46.614;14.276;2022-10-16T00:35:21;8.80;99.90
12315;DHT22;23886;46.614;14.276;2022-10-16T00:37:49;8.90;99.90
12315;DHT22;23886;46.614;14.276;2022-10-16T00:40:17;9.00;99.90
12315;DHT22;23886;46.614;14.276;2022-10-16T00:42:44;9.20;99.90
12315;DHT22;23886;46.614;14.276;2022-10-16T00:45:11;9.30;99.90
12315;DHT22;23886;46.614;14.276;2022-10-16T00:47:42;9.30;99.90
12315;DHT22;23886;46.614;14.276;2022-10-16T00:50:16;9.20;99.90
12315;DHT22;23886;46.614;14.276;2022-10-16T00:52:47;9.20;99.90
12315;DHT22;23886;46.614;14.276;2022-10-16T00:55:14;9.20;99.90
12315;DHT22;23886;46.614;14.276;2022-10-16T00:57:44;9.30;99.90
12315;DHT22;23886;46.614;14.276;2022-10-16T01:00:18;9.40;99.90
12315;DHT22;23886;46.614;14.276;2022-10-16T01:02:52;9.40;99.90
12315;DHT22;23886;46.614;14.276;2022-10-16T01:05:20;9.30;99.90
12315;DHT22;23886;46.614;14.276;2022-10-16T01:07:56;9.30;99.90
12315;DHT22;23886;46.614;14.276;2022-10-16T01:10:31;9.30;99.90
12315;DHT22;23886;46.614;14.276;2022-10-16T01:13:05;9.60;99.90
12315;DHT22;23886;46.614;14.276;2022-10-16T01:15:35;9.50;99.90
12315;DHT22;23886;46.614;14.276;2022-10-16T01:18:08;9.60;99.90
12315;DHT22;23886;46.614;14.276;2022-10-16T01:20:42;9.70;99.90
12315;DHT22;23886;46.614;14.276;2022-10-16T01:23:20;9.70;99.90
12315;DHT22;23886;46.614;14.276;2022-10-16T01:28:52;9.60;99.90
12315;DHT22;23886;46.614;14.276;2022-10-16T01:31:24;9.70;99.90
12315;DHT22;23886;46.614;14.276;2022-10-16T01:33:57;9.70;99.90
12315;DHT22;23886;46.614;14.276;2022-10-16T01:36:31;9.60;99.90
12315;DHT22;23886;46.614;14.276;2022-10-16T01:39:02;9.70;99.90
12315;DHT22;23886;46.614;14.276;2022-10-16T01:41:33;9.70;99.90
12315;DHT22;23886;46.614;14.276;2022-10-16T01:44:05;9.70;99.90
12315;DHT22;23886;46.614;14.276;2022-10-16T01:46:36;9.70;99.90
12315;DHT22;23886;46.614;14.276;2022-10-16T01:49:04;9.70;99.90
12315;DHT22;23886;46.614;14.276;2022-10-16T01:51:32;9.80;99.90
12315;DHT22;23886;46.614;14.276;2022-10-16T01:54:01;9.70;99.90
12315;DHT22;23886;46.614;14.276;2022-10-16T01:56:29;9.70;99.90
12315;DHT22;23886;46.614;14.276;2022-10-16T01:59:00;9.70;99.90
12315;DHT22;23886;46.614;14.276;2022-10-16T02:01:31;9.70;99.90
12315;DHT22;23886;46.614;14.276;2022-10-16T02:04:03;9.70;99.90
12315;DHT22;23886;46.614;14.276;2022-10-16T02:06:33;9.80;99.90
12315;DHT22;23886;46.614;14.276;2022-10-16T02:09:01;9.90;99.90
12315;DHT22;23886;46.614;14.276;2022-10-16T02:11:28;10.00;99.90
12315;DHT22;23886;46.614;14.276;2022-10-16T02:13:58;9.90;99.90
12315;DHT22;23886;46.614;14.276;2022-10-16T02:16:34;9.90;99.90
12315;DHT22;23886;46.614;14.276;2022-10-16T02:19:02;9.90;99.90
12315;DHT22;23886;46.614;14.276;2022-10-16T02:21:35;9.90;99.90
12315;DHT22;23886;46.614;14.276;2022-10-16T02:24:09;9.80;99.90
12315;DHT22;23886;46.614;14.276;2022-10-16T02:26:42;9.90;99.90
12315;DHT22;23886;46.614;14.276;2022-10-16T02:29:14;9.90;99.90
12315;DHT22;23886;46.614;14.276;2022-10-16T02:31:47;10.00;99.90
12315;DHT22;23886;46.614;14.276;2022-10-16T02:34:17;10.10;99.90
12315;DHT22;23886;46.614;14.276;2022-10-16T02:36:46;10.10;99.90
12315;DHT22;23886;46.614;14.276;2022-10-16T02:39:14;10.00;99.90
12315;DHT22;23886;46.614;14.276;2022-10-16T02:41:41;10.10;99.90
12315;DHT22;23886;46.614;14.276;2022-10-16T02:44:09;10.20;99.90
12315;DHT22;23886;46.614;14.276;2022-10-16T02:46:36;10.30;99.90
12315;DHT22;23886;46.614;14.276;2022-10-16T02:49:04;10.20;99.90
12315;DHT22;23886;46.614;14.276;2022-10-16T02:51:31;10.30;99.90
12315;DHT22;23886;46.614;14.276;2022-10-16T02:53:58;10.30;99.90
12315;DHT22;23886;46.614;14.276;2022-10-16T02:56:25;10.20;99.90
12315;DHT22;23886;46.614;14.276;2022-10-16T02:58:52;10.20;99.90
12315;DHT22;23886;46.614;14.276;2022-10-16T03:01:19;10.20;99.90
12315;DHT22;23886;46.614;14.276;2022-10-16T03:03:46;10.20;99.90
12315;DHT22;23886;46.614;14.276;2022-10-16T03:06:14;10.20;99.90
12315;DHT22;23886;46.614;14.276;2022-10-16T03:08:41;10.20;99.90
12315;DHT22;23886;46.614;14.276;2022-10-16T03:11:08;10.10;99.90
12315;DHT22;23886;46.614;14.276;2022-10-16T03:13:35;10.10;99.90
12315;DHT22;23886;46.614;14.276;2022-10-16T03:16:02;10.20;99.90
12315;DHT22;23886;46.614;14.276;2022-10-16T03:18:29;10.10;99.90
12315;DHT22;23886;46.614;14.276;2022-10-16T03:20:56;10.10;99.90
12315;DHT22;23886;46.614;14.276;2022-10-16T03:23:25;10.10;99.90
12315;DHT22;23886;46.614;14.276;2022-10-16T03:25:52;10.10;99.90
12315;DHT22;23886;46.614;14.276;2022-10-16T03:28:19;10.10;99.90
12315;DHT22;23886;46.614;14.276;2022-10-16T03:30:46;10.10;99.90
12315;DHT22;23886;46.614;14.276;2022-10-16T03:33:13;10.20;99.90
12315;DHT22;23886;46.614;14.276;2022-10-16T03:35:40;10.30;99.90
12315;DHT22;23886;46.614;14.276;2022-10-16T03:38:07;10.10;99.90
12315;DHT22;23886;46.614;14.276;2022-10-16T03:40:35;9.90;99.90
12315;DHT22;23886;46.614;14.276;2022-10-16T03:43:02;9.80;99.90
12315;DHT22;23886;46.614;14.276;2022-10-16T03:45:29;9.90;99.90
12315;DHT22;23886;46.614;14.276;2022-10-16T03:47:56;9.80;99.90
12315;DHT22;23886;46.614;14.276;2022-10-16T03:50:23;9.80;99.90
12315;DHT22;23886;46.614;14.276;2022-10-16T03:52:50;9.70;99.90
12315;DHT22;23886;46.614;14.276;2022-10-16T03:55:17;9.70;99.90
12315;DHT22;23886;46.614;14.276;2022-10-16T03:57:45;9.70;99.90
12315;DHT22;23886;46.614;14.276;2022-10-16T04:00:13;10.00;99.90
12315;DHT22;23886;46.614;14.276;2022-10-16T04:02:40;9.90;99.90
12315;DHT22;23886;46.614;14.276;2022-10-16T04:05:07;10.00;99.90
12315;DHT22;23886;46.614;14.276;2022-10-16T04:07:35;10.00;99.90
12315;DHT22;23886;46.614;14.276;2022-10-16T04:10:02;10.00;99.90
12315;DHT22;23886;46.614;14.276;2022-10-16T04:12:29;10.00;99.90
12315;DHT22;23886;46.614;14.276;2022-10-16T04:17:24;10.00;99.90
12315;DHT22;23886;46.614;14.276;2022-10-16T04:19:51;10.10;99.90
12315;DHT22;23886;46.614;14.276;2022-10-16T04:22:18;10.10;99.90
12315;DHT22;23886;46.614;14.276;2022-10-16T04:24:45;10.10;99.90
12315;DHT22;23886;46.614;14.276;2022-10-16T04:27:12;10.10;99.90
12315;DHT22;23886;46.614;14.276;2022-10-16T04:29:39;10.10;99.90
12315;DHT22;23886;46.614;14.276;2022-10-16T04:32:09;10.10;99.90
12315;DHT22;23886;46.614;14.276;2022-10-16T04:34:36;10.00;99.90
12315;DHT22;23886;46.614;14.276;2022-10-16T04:37:04;10.00;99.90
12315;DHT22;23886;46.614;14.276;2022-10-16T04:39:31;10.00;99.90
12315;DHT22;23886;46.614;14.276;2022-10-16T04:41:58;10.00;99.90
12315;DHT22;23886;46.614;14.276;2022-10-16T04:44:25;9.80;99.90
12315;DHT22;23886;46.614;14.276;2022-10-16T04:46:52;9.70;99.90
12315;DHT22;23886;46.614;14.276;2022-10-16T04:49:21;9.70;99.90
12315;DHT22;23886;46.614;14.276;2022-10-16T04:51:48;9.70;99.90
12315;DHT22;23886;46.614;14.276;2022-10-16T04:54:15;9.70;99.90
12315;DHT22;23886;46.614;14.276;2022-10-16T04:56:42;9.70;99.90
12315;DHT22;23886;46.614;14.276;2022-10-16T04:59:13;9.80;99.90
12315;DHT22;23886;46.614;14.276;2022-10-16T05:01:40;9.80;99.90
12315;DHT22;23886;46.614;14.276;2022-10-16T05:04:07;10.00;99.90
12315;DHT22;23886;46.614;14.276;2022-10-16T05:06:35;9.90;99.90
12315;DHT22;23886;46.614;14.276;2022-10-16T05:09:04;9.80;99.90
12315;DHT22;23886;46.614;14.276;2022-10-16T05:11:31;9.80;99.90
12315;DHT22;23886;46.614;14.276;2022-10-16T05:13:58;9.80;99.90
12315;DHT22;23886;46.614;14.276;2022-10-16T05:16:25;9.80;99.90
12315;DHT22;23886;46.614;14.276;2022-10-16T05:18:52;9.70;99.90
12315;DHT22;23886;46.614;14.276;2022-10-16T05:21:19;9.80;99.90
12315;DHT22;23886;46.614;14.276;2022-10-16T05:23:48;9.90;99.90
12315;DHT22;23886;46.614;14.276;2022-10-16T05:26:15;9.80;99.90
12315;DHT22;23886;46.614;14.276;2022-10-16T05:28:42;9.80;99.90
12315;DHT22;23886;46.614;14.276;2022-10-16T05:31:09;9.80;99.90
12315;DHT22;23886;46.614;14.276;2022-10-16T05:33:36;9.90;99.90
12315;DHT22;23886;46.614;14.276;2022-10-16T05:36:04;10.00;99.90
12315;DHT22;23886;46.614;14.276;2022-10-16T05:38:33;9.90;99.90
12315;DHT22;23886;46.614;14.276;2022-10-16T05:41:01;9.90;99.90
12315;DHT22;23886;46.614;14.276;2022-10-16T05:43:29;9.80;99.90
12315;DHT22;23886;46.614;14.276;2022-10-16T05:45:56;10.00;99.90
12315;DHT22;23886;46.614;14.276;2022-10-16T05:48:23;10.10;99.90
12315;DHT22;23886;46.614;14.276;2022-10-16T05:50:57;10.10;99.90
12315;DHT22;23886;46.614;14.276;2022-10-16T05:53:24;10.10;99.90
12315;DHT22;23886;46.614;14.276;2022-10-16T05:55:52;10.10;99.90
12315;DHT22;23886;46.614;14.276;2022-10-16T05:58:21;10.10;99.90
12315;DHT22;23886;46.614;14.276;2022-10-16T06:00:55;10.20;99.90
12315;DHT22;23886;46.614;14.276;2022-10-16T06:03:22;10.30;99.90
12315;DHT22;23886;46.614;14.276;2022-10-16T06:05:50;10.20;99.90
12315;DHT22;23886;46.614;14.276;2022-10-16T06:08:18;10.20;99.90
12315;DHT22;23886;46.614;14.276;2022-10-16T06:10:45;10.20;99.90
12315;DHT22;23886;46.614;14.276;2022-10-16T06:13:13;10.20;99.90
12315;DHT22;23886;46.614;14.276;2022-10-16T06:15:42;10.10;99.90
12315;DHT22;23886;46.614;14.276;2022-10-16T06:18:09;10.20;99.90
12315;DHT22;23886;46.614;14.276;2022-10-16T06:20:37;10.30;99.90
12315;DHT22;23886;46.614;14.276;2022-10-16T06:23:04;10.40;99.90
12315;DHT22;23886;46.614;14.276;2022-10-16T06:25:31;10.50;99.90
12315;DHT22;23886;46.614;14.276;2022-10-16T06:27:58;10.80;99.90
12315;DHT22;23886;46.614;14.276;2022-10-16T06:30:26;10.70;99.90
12315;DHT22;23886;46.614;14.276;2022-10-16T06:32:55;10.70;99.90
12315;DHT22;23886;46.614;14.276;2022-10-16T06:35:22;10.60;99.90
12315;DHT22;23886;46.614;14.276;2022-10-16T06:37:49;10.70;99.90
12315;DHT22;23886;46.614;14.276;2022-10-16T06:40:16;10.90;99.90
12315;DHT22;23886;46.614;14.276;2022-10-16T06:42:43;10.90;99.90
12315;DHT22;23886;46.614;14.276;2022-10-16T06:45:11;11.10;99.90
12315;DHT22;23886;46.614;14.276;2022-10-16T06:47:38;11.00;99.90
12315;DHT22;23886;46.614;14.276;2022-10-16T06:50:07;11.00;99.90
12315;DHT22;23886;46.614;14.276;2022-10-16T06:52:34;11.00;99.90
12315;DHT22;23886;46.614;14.276;2022-10-16T06:55:01;10.90;99.90
12315;DHT22;23886;46.614;14.276;2022-10-16T06:57:29;11.00;99.90
12315;DHT22;23886;46.614;14.276;2022-10-16T06:59:56;11.10;99.90
12315;DHT22;23886;46.614;14.276;2022-10-16T07:02:23;11.10;99.90
12315;DHT22;23886;46.614;14.276;2022-10-16T07:04:50;11.00;99.90
12315;DHT22;23886;46.614;14.276;2022-10-16T07:07:18;11.00;99.90
12315;DHT22;23886;46.614;14.276;2022-10-16T07:09:45;11.00;99.90
12315;DHT22;23886;46.614;14.276;2022-10-16T07:12:12;10.90;99.90
12315;DHT22;23886;46.614;14.276;2022-10-16T07:14:39;10.80;99.90
12315;DHT22;23886;46.614;14.276;2022-10-16T07:17:06;10.80;99.90
12315;DHT22;23886;46.614;14.276;2022-10-16T07:19:33;11.00;99.90
12315;DHT22;23886;46.614;14.276;2022-10-16T07:22:00;11.10;99.90
12315;DHT22;23886;46.614;14.276;2022-10-16T07:24:30;11.20;99.90
12315;DHT22;23886;46.614;14.276;2022-10-16T07:26:56;11.30;99.90
12315;DHT22;23886;46.614;14.276;2022-10-16T07:29:23;11.00;99.90
12315;DHT22;23886;46.614;14.276;2022-10-16T07:31:50;11.00;99.90
12315;DHT22;23886;46.614;14.276;2022-10-16T07:34:18;11.00;99.90
12315;DHT22;23886;46.614;14.276;2022-10-16T07:36:48;11.20;99.90
12315;DHT22;23886;46.614;14.276;2022-10-16T07:39:15;11.10;99.90
12315;DHT22;23886;46.614;14.276;2022-10-16T07:41:43;11.20;99.90
12315;DHT22;23886;46.614;14.276;2022-10-16T07:44:10;11.50;99.90
12315;DHT22;23886;46.614;14.276;2022-10-16T07:46:37;11.70;99.90
12315;DHT22;23886;46.614;14.276;2022-10-16T07:49:04;11.60;99.90
12315;DHT22;23886;46.614;14.276;2022-10-16T07:51:31;11.90;99.90
12315;DHT22;23886;46.614;14.276;2022-10-16T07:53:58;12.20;99.90
12315;DHT22;23886;46.614;14.276;2022-10-16T07:56:25;12.30;99.90
12315;DHT22;23886;46.614;14.276;2022-10-16T07:58:53;12.00;99.90
12315;DHT22;23886;46.614;14.276;2022-10-16T08:01:21;12.10;99.90
12315;DHT22;23886;46.614;14.276;2022-10-16T08:03:49;12.20;99.90
12315;DHT22;23886;46.614;14.276;2022-10-16T08:06:17;12.30;99.90
12315;DHT22;23886;46.614;14.276;2022-10-16T08:08:45;12.10;99.90
12315;DHT22;23886;46.614;14.276;2022-10-16T08:11:13;11.70;99.90
12315;DHT22;23886;46.614;14.276;2022-10-16T08:13:40;11.80;99.90
12315;DHT22;23886;46.614;14.276;2022-10-16T08:16:09;12.10;99.90
12315;DHT22;23886;46.614;14.276;2022-10-16T08:18:37;12.20;99.90
12315;DHT22;23886;46.614;14.276;2022-10-16T08:21:05;12.30;99.90
12315;DHT22;23886;46.614;14.276;2022-10-16T08:23:33;12.30;99.90
12315;DHT22;23886;46.614;14.276;2022-10-16T08:26:03;12.50;99.90
12315;DHT22;23886;46.614;14.276;2022-10-16T08:28:31;12.20;99.90
12315;DHT22;23886;46.614;14.276;2022-10-16T08:31:05;12.40;99.90
12315;DHT22;23886;46.614;14.276;2022-10-16T08:33:34;12.60;99.90
12315;DHT22;23886;46.614;14.276;2022-10-16T08:36:02;12.60;99.90
12315;DHT22;23886;46.614;14.276;2022-10-16T08:38:29;12.70;99.90
12315;DHT22;23886;46.614;14.276;2022-10-16T08:41:08;12.70;99.90
12315;DHT22;23886;46.614;14.276;2022-10-16T08:43:44;12.70;99.90
12315;DHT22;23886;46.614;14.276;2022-10-16T08:46:25;13.10;99.90
12315;DHT22;23886;46.614;14.276;2022-10-16T08:48:58;12.90;99.90
12315;DHT22;23886;46.614;14.276;2022-10-16T08:51:28;12.70;99.90
12315;DHT22;23886;46.614;14.276;2022-10-16T08:53:57;12.80;99.90
12315;DHT22;23886;46.614;14.276;2022-10-16T08:56:26;12.70;99.90
12315;DHT22;23886;46.614;14.276;2022-10-16T08:58:54;12.60;99.90
12315;DHT22;23886;46.614;14.276;2022-10-16T09:01:23;12.50;99.90
12315;DHT22;23886;46.614;14.276;2022-10-16T09:04:22;12.50;99.90
12315;DHT22;23886;46.614;14.276;2022-10-16T09:06:57;12.70;99.90
12315;DHT22;23886;46.614;14.276;2022-10-16T09:09:41;12.50;99.90
12315;DHT22;23886;46.614;14.276;2022-10-16T09:12:18;12.30;99.90
12315;DHT22;23886;46.614;14.276;2022-10-16T09:14:58;12.40;99.90
12315;DHT22;23886;46.614;14.276;2022-10-16T09:17:36;12.40;99.90
12315;DHT22;23886;46.614;14.276;2022-10-16T09:20:18;12.40;99.90
12315;DHT22;23886;46.614;14.276;2022-10-16T09:22:46;12.50;99.90
12315;DHT22;23886;46.614;14.276;2022-10-16T09:25:14;12.60;99.90
12315;DHT22;23886;46.614;14.276;2022-10-16T09:27:45;12.60;99.90
12315;DHT22;23886;46.614;14.276;2022-10-16T09:30:15;12.90;99.90
12315;DHT22;23886;46.614;14.276;2022-10-16T09:32:44;13.10;99.90
12315;DHT22;23886;46.614;14.276;2022-10-16T09:35:16;13.30;99.90
12315;DHT22;23886;46.614;14.276;2022-10-16T09:37:45;13.30;99.90
12315;DHT22;23886;46.614;14.276;2022-10-16T09:40:23;13.40;99.90
12315;DHT22;23886;46.614;14.276;2022-10-16T09:43:01;13.40;99.90
12315;DHT22;23886;46.614;14.276;2022-10-16T09:45:29;13.60;99.90
12315;DHT22;23886;46.614;14.276;2022-10-16T09:47:56;13.70;99.90
12315;DHT22;23886;46.614;14.276;2022-10-16T09:50:27;13.80;99.90
12315;DHT22;23886;46.614;14.276;2022-10-16T09:53:05;13.90;99.90
12315;DHT22;23886;46.614;14.276;2022-10-16T09:55:32;14.10;99.90
12315;DHT22;23886;46.614;14.276;2022-10-16T09:57:59;14.20;99.90
12315;DHT22;23886;46.614;14.276;2022-10-16T10:00:26;14.20;99.90
12315;DHT22;23886;46.614;14.276;2022-10-16T10:02:53;14.30;99.90
12315;DHT22;23886;46.614;14.276;2022-10-16T10:05:22;14.40;99.90
12315;DHT22;23886;46.614;14.276;2022-10-16T10:07:56;14.60;99.90
12315;DHT22;23886;46.614;14.276;2022-10-16T10:10:26;14.70;99.90
12315;DHT22;23886;46.614;14.276;2022-10-16T10:12:54;14.90;99.90
12315;DHT22;23886;46.614;14.276;2022-10-16T10:15:22;15.10;99.90
12315;DHT22;23886;46.614;14.276;2022-10-16T10:17:51;15.10;99.90
12315;DHT22;23886;46.614;14.276;2022-10-16T10:20:23;15.20;99.90
12315;DHT22;23886;46.614;14.276;2022-10-16T10:22:51;15.30;99.90
12315;DHT22;23886;46.614;14.276;2022-10-16T10:25:32;15.50;99.90
12315;DHT22;23886;46.614;14.276;2022-10-16T10:31:07;15.80;99.90
12315;DHT22;23886;46.614;14.276;2022-10-16T10:33:43;16.00;99.90
12315;DHT22;23886;46.614;14.276;2022-10-16T10:36:20;16.20;99.90
12315;DHT22;23886;46.614;14.276;2022-10-16T10:38:52;16.10;99.90
12315;DHT22;23886;46.614;14.276;2022-10-16T10:41:56;16.20;99.90
12315;DHT22;23886;46.614;14.276;2022-10-16T10:47:23;16.50;99.90
12315;DHT22;23886;46.614;14.276;2022-10-16T10:50:00;16.50;99.90
12315;DHT22;23886;46.614;14.276;2022-10-16T10:52:41;16.70;99.90
12315;DHT22;23886;46.614;14.276;2022-10-16T10:55:15;16.90;99.90
12315;DHT22;23886;46.614;14.276;2022-10-16T11:00:42;17.00;99.90
12315;DHT22;23886;46.614;14.276;2022-10-16T11:03:21;17.20;99.90
12315;DHT22;23886;46.614;14.276;2022-10-16T11:05:56;17.20;99.90
12315;DHT22;23886;46.614;14.276;2022-10-16T11:08:27;17.30;99.90
12315;DHT22;23886;46.614;14.276;2022-10-16T11:11:00;17.50;99.90
12315;DHT22;23886;46.614;14.276;2022-10-16T11:13:32;17.50;99.90
12315;DHT22;23886;46.614;14.276;2022-10-16T11:16:11;17.50;99.90
12315;DHT22;23886;46.614;14.276;2022-10-16T11:18:47;17.50;99.90
12315;DHT22;23886;46.614;14.276;2022-10-16T11:21:19;17.70;99.90
12315;DHT22;23886;46.614;14.276;2022-10-16T11:23:51;17.80;99.90
12315;DHT22;23886;46.614;14.276;2022-10-16T11:26:23;17.90;99.90
12315;DHT22;23886;46.614;14.276;2022-10-16T11:28:54;17.90;99.90
12315;DHT22;23886;46.614;14.276;2022-10-16T11:31:27;18.10;99.90
12315;DHT22;23886;46.614;14.276;2022-10-16T11:34:01;18.10;99.90
12315;DHT22;23886;46.614;14.276;2022-10-16T11:36:35;18.30;99.90
12315;DHT22;23886;46.614;14.276;2022-10-16T11:39:11;18.40;99.90
12315;DHT22;23886;46.614;14.276;2022-10-16T11:41:44;18.40;99.90
12315;DHT22;23886;46.614;14.276;2022-10-16T11:44:22;18.50;99.90
12315;DHT22;23886;46.614;14.276;2022-10-16T11:46:57;18.70;99.90
12315;DHT22;23886;46.614;14.276;2022-10-16T11:49:26;18.60;99.90
12315;DHT22;23886;46.614;14.276;2022-10-16T11:51:59;18.50;99.90
12315;DHT22;23886;46.614;14.276;2022-10-16T11:54:34;18.50;99.90
12315;DHT22;23886;46.614;14.276;2022-10-16T11:57:11;18.40;99.90
12315;DHT22;23886;46.614;14.276;2022-10-16T11:59:44;18.10;99.90
12315;DHT22;23886;46.614;14.276;2022-10-16T12:05:19;18.30;99.90
12315;DHT22;23886;46.614;14.276;2022-10-16T12:07:55;18.60;99.90
12315;DHT22;23886;46.614;14.276;2022-10-16T12:10:27;18.80;99.90
12315;DHT22;23886;46.614;14.276;2022-10-16T12:12:54;18.90;99.90
12315;DHT22;23886;46.614;14.276;2022-10-16T12:15:26;19.20;99.90
12315;DHT22;23886;46.614;14.276;2022-10-16T12:17:53;19.20;99.90
12315;DHT22;23886;46.614;14.276;2022-10-16T12:20:24;19.20;99.90
12315;DHT22;23886;46.614;14.276;2022-10-16T12:22:54;19.20;99.90
12315;DHT22;23886;46.614;14.276;2022-10-16T12:25:25;19.10;99.90
12315;DHT22;23886;46.614;14.276;2022-10-16T12:27:58;19.30;99.90
12315;DHT22;23886;46.614;14.276;2022-10-16T12:30:28;19.30;99.90
12315;DHT22;23886;46.614;14.276;2022-10-16T12:32:56;19.40;99.90
12315;DHT22;23886;46.614;14.276;2022-10-16T12:35:27;19.50;99.90
12315;DHT22;23886;46.614;14.276;2022-10-16T12:38:05;19.60;99.90
12315;DHT22;23886;46.614;14.276;2022-10-16T12:40:34;19.70;99.90
12315;DHT22;23886;46.614;14.276;2022-10-16T12:43:13;19.90;99.90
12315;DHT22;23886;46.614;14.276;2022-10-16T12:45:41;20.10;99.90
12315;DHT22;23886;46.614;14.276;2022-10-16T12:48:20;20.10;99.90
12315;DHT22;23886;46.614;14.276;2022-10-16T12:50:48;20.10;99.90
12315;DHT22;23886;46.614;14.276;2022-10-16T12:53:19;20.30;99.90
12315;DHT22;23886;46.614;14.276;2022-10-16T12:55:55;20.70;99.90
12315;DHT22;23886;46.614;14.276;2022-10-16T12:58:37;21.00;99.90
12315;DHT22;23886;46.614;14.276;2022-10-16T13:01:21;21.40;99.90
12315;DHT22;23886;46.614;14.276;2022-10-16T13:04:10;21.60;99.90
12315;DHT22;23886;46.614;14.276;2022-10-16T13:06:47;21.60;99.90
12315;DHT22;23886;46.614;14.276;2022-10-16T13:09:34;21.50;99.90
12315;DHT22;23886;46.614;14.276;2022-10-16T13:12:16;21.60;99.90
12315;DHT22;23886;46.614;14.276;2022-10-16T13:15:06;21.20;99.90
12315;DHT22;23886;46.614;14.276;2022-10-16T13:17:44;21.30;99.90
12315;DHT22;23886;46.614;14.276;2022-10-16T13:20:18;21.50;99.90
12315;DHT22;23886;46.614;14.276;2022-10-16T13:22:53;22.00;99.90
12315;DHT22;23886;46.614;14.276;2022-10-16T13:25:30;22.40;99.50
12315;DHT22;23886;46.614;14.276;2022-10-16T13:28:00;23.10;99.80
12315;DHT22;23886;46.614;14.276;2022-10-16T13:30:29;23.60;98.40
12315;DHT22;23886;46.614;14.276;2022-10-16T13:33:02;23.90;97.90
12315;DHT22;23886;46.614;14.276;2022-10-16T13:35:32;24.20;97.30
12315;DHT22;23886;46.614;14.276;2022-10-16T13:38:12;24.30;96.80
12315;DHT22;23886;46.614;14.276;2022-10-16T13:40:51;24.70;96.00
12315;DHT22;23886;46.614;14.276;2022-10-16T13:43:20;25.10;95.50
12315;DHT22;23886;46.614;14.276;2022-10-16T13:45:56;25.30;95.10
12315;DHT22;23886;46.614;14.276;2022-10-16T13:48:25;25.50;94.30
12315;DHT22;23886;46.614;14.276;2022-10-16T13:51:00;24.80;94.80
12315;DHT22;23886;46.614;14.276;2022-10-16T13:53:27;24.90;94.50
12315;DHT22;23886;46.614;14.276;2022-10-16T13:55:54;25.10;94.30
12315;DHT22;23886;46.614;14.276;2022-10-16T13:58:21;25.60;93.70
12315;DHT22;23886;46.614;14.276;2022-10-16T14:00:56;25.50;93.60
12315;DHT22;23886;46.614;14.276;2022-10-16T14:03:26;25.90;93.30
12315;DHT22;23886;46.614;14.276;2022-10-16T14:05:55;26.00;92.40
12315;DHT22;23886;46.614;14.276;2022-10-16T14:08:25;26.10;92.10
12315;DHT22;23886;46.614;14.276;2022-10-16T14:10:54;26.30;92.00
12315;DHT22;23886;46.614;14.276;2022-10-16T14:13:30;26.70;91.90
12315;DHT22;23886;46.614;14.276;2022-10-16T14:16:01;26.80;91.20
12315;DHT22;23886;46.614;14.276;2022-10-16T14:18:30;26.40;91.40
12315;DHT22;23886;46.614;14.276;2022-10-16T14:21:03;26.60;91.50
12315;DHT22;23886;46.614;14.276;2022-10-16T14:23:33;26.70;90.90
12315;DHT22;23886;46.614;14.276;2022-10-16T14:26:13;26.70;90.60
12315;DHT22;23886;46.614;14.276;2022-10-16T14:28:41;26.50;91.20
12315;DHT22;23886;46.614;14.276;2022-10-16T14:31:30;27.40;90.70
12315;DHT22;23886;46.614;14.276;2022-10-16T14:34:00;26.70;90.80
12315;DHT22;23886;46.614;14.276;2022-10-16T14:36:28;27.50;90.50
12315;DHT22;23886;46.614;14.276;2022-10-16T14:39:01;26.80;90.70
12315;DHT22;23886;46.614;14.276;2022-10-16T14:41:29;27.20;90.90
12315;DHT22;23886;46.614;14.276;2022-10-16T14:44:01;27.50;90.50
12315;DHT22;23886;46.614;14.276;2022-10-16T14:46:32;26.90;90.60
12315;DHT22;23886;46.614;14.276;2022-10-16T14:49:04;26.50;92.00
12315;DHT22;23886;46.614;14.276;2022-10-16T14:51:31;26.10;92.20
12315;DHT22;23886;46.614;14.276;2022-10-16T14:53:58;24.60;94.00
12315;DHT22;23886;46.614;14.276;2022-10-16T14:56:28;24.00;94.50
12315;DHT22;23886;46.614;14.276;2022-10-16T14:58:56;23.40;95.90
12315;DHT22;23886;46.614;14.276;2022-10-16T15:01:23;23.20;96.60
12315;DHT22;23886;46.614;14.276;2022-10-16T15:03:50;22.80;97.50
12315;DHT22;23886;46.614;14.276;2022-10-16T15:06:21;22.50;98.30
12315;DHT22;23886;46.614;14.276;2022-10-16T15:08:48;22.30;99.40
12315;DHT22;23886;46.614;14.276;2022-10-16T15:11:17;22.00;99.30
12315;DHT22;23886;46.614;14.276;2022-10-16T15:13:44;21.40;99.80
12315;DHT22;23886;46.614;14.276;2022-10-16T15:16:13;21.30;99.90
12315;DHT22;23886;46.614;14.276;2022-10-16T15:18:41;20.90;99.90
12315;DHT22;23886;46.614;14.276;2022-10-16T15:21:08;20.70;99.90
12315;DHT22;23886;46.614;14.276;2022-10-16T15:23:40;20.50;99.90
12315;DHT22;23886;46.614;14.276;2022-10-16T15:26:07;20.20;99.90
12315;DHT22;23886;46.614;14.276;2022-10-16T15:28:34;20.20;99.90
12315;DHT22;23886;46.614;14.276;2022-10-16T15:31:04;20.00;99.90
12315;DHT22;23886;46.614;14.276;2022-10-16T15:33:31;19.60;99.90
12315;DHT22;23886;46.614;14.276;2022-10-16T15:36:00;19.40;99.90
12315;DHT22;23886;46.614;14.276;2022-10-16T15:38:28;19.20;99.90
12315;DHT22;23886;46.614;14.276;2022-10-16T15:40:56;19.00;99.90
12315;DHT22;23886;46.614;14.276;2022-10-16T15:43:23;18.80;99.90
12315;DHT22;23886;46.614;14.276;2022-10-16T15:46:01;18.80;99.90
12315;DHT22;23886;46.614;14.276;2022-10-16T15:48:28;18.70;99.90
12315;DHT22;23886;46.614;14.276;2022-10-16T15:50:55;18.40;99.90
12315;DHT22;23886;46.614;14.276;2022-10-16T15:53:22;18.20;99.90
12315;DHT22;23886;46.614;14.276;2022-10-16T15:55:49;17.90;99.90